Mississippi Star — 9HA2441 — position and weather

sailwx.info

Track history (hours):
 
Tides and Currents Weather Stations Pressure Air Temp Water Temp Dewpoint Dewpoint Depression Visibility Wind Speed Wind Dir Waves Ship Positions

Mississippi Star

Last reported at 2014-Oct-25 22:33 UTC. Time now 2014-Oct-25 22:56 UTC.
Position N 55°32' E 014°56'.

Length 128 m; draft 5.8 m.

Type: Ship. MMSI: 248621000.

Date/timePositionNaut miles runAvg speedWind from/ knotsBaromVisibWave heightAir tempDewpointWater temp
2014-Oct-25 22:33N 55°32' E 014°56'1111.2
2014-Oct-25 21:33N 55°38' E 015°14'3311.0
2014-Oct-25 18:33N 55°54' E 016°05'1111.0
2014-Oct-25 17:33N 55°60' E 016°21'1211.0
2014-Oct-25 16:26N 56°07' E 016°40'2010.6
2014-Oct-25 14:32N 56°24' E 016°58'2110.2
2014-Oct-25 12:29N 56°44' E 017°11'9 9.4
2014-Oct-25 11:32N 56°52' E 017°16'9 9.0
2014-Oct-25 10:33N 57°00' E 017°22'9 8.6
2014-Oct-25 09:33N 57°08' E 017°27'9 8.7
2014-Oct-25 08:33N 57°17' E 017°33'8 8.4
2014-Oct-25 07:33N 57°24' E 017°38'9 8.6
2014-Oct-25 06:30N 57°33' E 017°43'65 9.0
2014-Oct-24 23:16N 58°37' E 017°15'912.4
2014-Oct-24 22:33N 58°37' E 016°59'1212.4
2014-Oct-24 21:33N 58°38' E 016°35'1010.4
2014-Oct-24 20:33N 58°37' E 016°15'0 0.0
2014-Oct-24 19:31N 58°37' E 016°15'0 0.0
2014-Oct-24 18:31N 58°37' E 016°15'0 0.0
2014-Oct-24 17:31N 58°37' E 016°15'0 0.0
2014-Oct-24 16:31N 58°37' E 016°15'0 0.0
2014-Oct-24 15:25N 58°37' E 016°15'0 0.0
2014-Oct-24 14:19N 58°37' E 016°15'0 0.0
2014-Oct-24 13:28N 58°37' E 016°15'0 0.0
2014-Oct-24 12:31N 58°37' E 016°15'0 0.0
2014-Oct-24 11:28N 58°37' E 016°15'0 0.0
2014-Oct-24 10:28N 58°37' E 016°15'0 0.0
2014-Oct-24 09:31N 58°37' E 016°15'0 0.0
2014-Oct-24 08:31N 58°37' E 016°15'0 0.0
2014-Oct-24 07:28N 58°37' E 016°15'0 0.0
2014-Oct-24 06:31N 58°37' E 016°15'0 0.0
2014-Oct-24 05:31N 58°37' E 016°15'0 0.0
2014-Oct-24 04:28N 58°37' E 016°15'0 0.0
2014-Oct-24 03:34N 58°37' E 016°15'8 7.7
2014-Oct-24 02:33N 58°39' E 016°29'1211.9
2014-Oct-24 01:33N 58°36' E 016°52'1212.1
2014-Oct-24 00:34N 58°37' E 017°15'186 9.6
2014-Oct-23 05:14N 55°39' E 015°30'811.3
2014-Oct-23 04:32N 55°35' E 015°18'1111.5
2014-Oct-23 03:34N 55°30' E 015°00'1111.4
2014-Oct-23 02:33N 55°25' E 014°42'1111.0
2014-Oct-23 01:34N 55°17' E 014°29'1111.4
2014-Oct-23 00:34N 55°08' E 014°17'1111.4
2014-Oct-22 23:34N 55°00' E 014°02'1211.6
2014-Oct-22 22:33N 54°57' E 013°43'4911.2
2014-Oct-22 18:13N 54°38' E 012°25'811.0
2014-Oct-22 17:28N 54°31' E 012°16'910.2
2014-Oct-22 16:33N 54°24' E 012°05'1111.2
2014-Oct-22 15:33N 54°25' E 011°46'138 4.3
2014-Oct-21 07:16N 56°42' E 011°49'911.9
2014-Oct-21 06:33N 56°51' E 011°49'1312.8
2014-Oct-21 05:32N 57°03' E 011°40'1212.6
2014-Oct-21 04:33N 57°15' E 011°32'1312.6
2014-Oct-21 03:33N 57°27' E 011°24'1312.6
2014-Oct-21 02:33N 57°38' E 011°17'1413.5
2014-Oct-21 01:33N 57°51' E 011°08'1312.7
2014-Oct-21 00:33N 58°03' E 011°01'1212.5
2014-Oct-20 23:33N 58°15' E 010°53'1111.4
2014-Oct-20 22:33N 58°26' E 010°46'1111.4
2014-Oct-20 21:33N 58°37' E 010°39'1211.6
2014-Oct-20 20:33N 58°48' E 010°33'1211.8
2014-Oct-20 19:33N 58°60' E 010°35'1110.5
2014-Oct-20 18:33N 59°10' E 010°37'10 9.8
2014-Oct-20 17:33N 59°20' E 010°31'0 0.0
2014-Oct-20 16:33N 59°20' E 010°31'0 0.0
2014-Oct-20 15:33N 59°20' E 010°31'0 0.0
2014-Oct-20 14:30N 59°20' E 010°31'0 0.0
2014-Oct-20 13:33N 59°20' E 010°31'0 0.0
2014-Oct-20 04:33N 59°20' E 010°31'0 0.0
2014-Oct-20 03:30N 59°20' E 010°31'0 0.0
2014-Oct-20 02:33N 59°20' E 010°31'0 0.0
2014-Oct-20 01:30N 59°20' E 010°31'0 0.0
2014-Oct-20 00:33N 59°20' E 010°31'0 0.0
2014-Oct-19 23:22N 59°20' E 010°31'1 0.8
2014-Oct-19 22:32N 59°20' E 010°31'0 0.0
2014-Oct-19 21:32N 59°20' E 010°31'0 0.0
2014-Oct-19 20:32N 59°20' E 010°31'0 0.0
2014-Oct-19 19:32N 59°20' E 010°31'0 0.0
2014-Oct-19 18:32N 59°20' E 010°31'0 0.0
2014-Oct-19 17:29N 59°20' E 010°31'0 0.0
2014-Oct-19 16:32N 59°20' E 010°31'0 0.0
2014-Oct-19 15:29N 59°20' E 010°31'0 0.0
2014-Oct-19 14:32N 59°20' E 010°31'0 0.0
2014-Oct-19 13:32N 59°20' E 010°31'0 0.0
2014-Oct-19 12:32N 59°20' E 010°31'0 0.1
2014-Oct-19 11:32N 59°20' E 010°31'0 0.0
2014-Oct-19 10:32N 59°20' E 010°31'0 0.0
2014-Oct-19 09:32N 59°20' E 010°31'0 0.0
2014-Oct-19 08:32N 59°20' E 010°31'0 0.0
2014-Oct-19 07:32N 59°20' E 010°31'0 0.0
2014-Oct-19 06:32N 59°20' E 010°31'4 4.6
2014-Oct-19 05:33N 59°16' E 010°35'1211.6
2014-Oct-19 04:33N 59°05' E 010°34'1110.6
2014-Oct-19 03:33N 58°54' E 010°30'1111.3
2014-Oct-19 02:33N 58°43' E 010°24'1111.3
2014-Oct-19 01:33N 58°33' E 010°18'1610.8
2014-Oct-19 00:05N 58°20' E 009°60'4711.9
2014-Oct-18 20:05N 57°44' E 009°01'611.8
2014-Oct-18 19:32N 57°39' E 008°53'1212.4
2014-Oct-18 18:33N 57°29' E 008°39'22912.7
2014-Oct-18 00:33N 54°15' E 005°05'1312.6
2014-Oct-17 23:32N 54°05' E 004°50'1212.5
2014-Oct-17 22:33N 53°56' E 004°36'11410.1
2014-Oct-17 11:19N 52°09' E 003°32'911.5
2014-Oct-17 10:33N 52°05' E 003°44'9 9.4
2014-Oct-17 09:33N 52°02' E 003°59'5 5.0
2014-Oct-17 08:33N 51°59' E 004°05'4 3.3
2014-Oct-17 07:27N 51°56' E 004°10'0 0.0
2014-Oct-17 06:33N 51°56' E 004°10'0 0.0
2014-Oct-17 05:33N 51°56' E 004°10'0 0.0
2014-Oct-17 04:33N 51°56' E 004°10'0 0.0
2014-Oct-17 03:27N 51°56' E 004°10'0 0.0
2014-Oct-17 02:27N 51°56' E 004°10'0 0.0
2014-Oct-17 01:24N 51°56' E 004°10'0 0.0
2014-Oct-17 00:27N 51°56' E 004°10'0 0.0
2014-Oct-16 23:33N 51°56' E 004°10'0 0.0
2014-Oct-16 22:33N 51°56' E 004°10'0 0.0
2014-Oct-16 21:30N 51°56' E 004°10'0 0.0
2014-Oct-16 20:33N 51°56' E 004°10'0 0.0
2014-Oct-16 19:33N 51°56' E 004°10'0 0.0
2014-Oct-16 18:33N 51°56' E 004°10'0 0.0
2014-Oct-16 17:18N 51°56' E 004°10'0 0.0
2014-Oct-16 16:33N 51°56' E 004°10'0 0.0
2014-Oct-16 15:33N 51°56' E 004°10'0 0.0
2014-Oct-16 14:33N 51°56' E 004°10'0 0.0
2014-Oct-16 13:33N 51°56' E 004°10'0 0.0
2014-Oct-16 12:12N 51°56' E 004°10'0 0.0
2014-Oct-16 11:33N 51°56' E 004°10'0 0.0
2014-Oct-16 10:24N 51°56' E 004°10'0 0.0
2014-Oct-16 09:33N 51°56' E 004°10'0 0.0
2014-Oct-16 08:33N 51°56' E 004°10'0 0.0
2014-Oct-16 07:27N 51°56' E 004°10'0 0.0
2014-Oct-16 06:27N 51°56' E 004°10'0 0.0
2014-Oct-16 05:33N 51°56' E 004°10'0 0.0
2014-Oct-16 04:30N 51°56' E 004°10'0 0.0
2014-Oct-16 03:33N 51°56' E 004°10'0 0.0
2014-Oct-16 02:33N 51°56' E 004°10'0 0.0
2014-Oct-16 01:33N 51°56' E 004°10'0 0.0
2014-Oct-16 00:33N 51°56' E 004°10'0 0.0
2014-Oct-15 23:33N 51°56' E 004°10'  
Track history (hours):
 
Tides and Currents Weather Stations Pressure Air Temp Water Temp Dewpoint Dewpoint Depression Visibility Wind Speed Wind Dir Waves Ship Positions

Mississippi Star

Last reported at 2014-Oct-25 22:33 UTC. Time now 2014-Oct-25 22:56 UTC.
Position N 55°32' E 014°56'.

Length 128 m; draft 5.8 m.

Type: Ship. MMSI: 248621000.

Date/timePositionNaut miles runAvg speedWind from/ knotsBaromVisibWave heightAir tempDewpointWater temp
2014-Oct-25 22:33N 55°32' E 014°56'1111.2
2014-Oct-25 21:33N 55°38' E 015°14'3311.0
2014-Oct-25 18:33N 55°54' E 016°05'1111.0
2014-Oct-25 17:33N 55°60' E 016°21'1211.0
2014-Oct-25 16:26N 56°07' E 016°40'2010.6
2014-Oct-25 14:32N 56°24' E 016°58'2110.2
2014-Oct-25 12:29N 56°44' E 017°11'9 9.4
2014-Oct-25 11:32N 56°52' E 017°16'9 9.0
2014-Oct-25 10:33N 57°00' E 017°22'9 8.6
2014-Oct-25 09:33N 57°08' E 017°27'9 8.7
2014-Oct-25 08:33N 57°17' E 017°33'8 8.4
2014-Oct-25 07:33N 57°24' E 017°38'9 8.6
2014-Oct-25 06:30N 57°33' E 017°43'65 9.0
2014-Oct-24 23:16N 58°37' E 017°15'912.4
2014-Oct-24 22:33N 58°37' E 016°59'1212.4
2014-Oct-24 21:33N 58°38' E 016°35'1010.4
2014-Oct-24 20:33N 58°37' E 016°15'0 0.0
2014-Oct-24 19:31N 58°37' E 016°15'0 0.0
2014-Oct-24 18:31N 58°37' E 016°15'0 0.0
2014-Oct-24 17:31N 58°37' E 016°15'0 0.0
2014-Oct-24 16:31N 58°37' E 016°15'0 0.0
2014-Oct-24 15:25N 58°37' E 016°15'0 0.0
2014-Oct-24 14:19N 58°37' E 016°15'0 0.0
2014-Oct-24 13:28N 58°37' E 016°15'0 0.0
2014-Oct-24 12:31N 58°37' E 016°15'0 0.0
2014-Oct-24 11:28N 58°37' E 016°15'0 0.0
2014-Oct-24 10:28N 58°37' E 016°15'0 0.0
2014-Oct-24 09:31N 58°37' E 016°15'0 0.0
2014-Oct-24 08:31N 58°37' E 016°15'0 0.0
2014-Oct-24 07:28N 58°37' E 016°15'0 0.0
2014-Oct-24 06:31N 58°37' E 016°15'0 0.0
2014-Oct-24 05:31N 58°37' E 016°15'0 0.0
2014-Oct-24 04:28N 58°37' E 016°15'0 0.0
2014-Oct-24 03:34N 58°37' E 016°15'8 7.7
2014-Oct-24 02:33N 58°39' E 016°29'1211.9
2014-Oct-24 01:33N 58°36' E 016°52'1212.1
2014-Oct-24 00:34N 58°37' E 017°15'186 9.6
2014-Oct-23 05:14N 55°39' E 015°30'811.3
2014-Oct-23 04:32N 55°35' E 015°18'1111.5
2014-Oct-23 03:34N 55°30' E 015°00'1111.4
2014-Oct-23 02:33N 55°25' E 014°42'1111.0
2014-Oct-23 01:34N 55°17' E 014°29'1111.4
2014-Oct-23 00:34N 55°08' E 014°17'1111.4
2014-Oct-22 23:34N 55°00' E 014°02'1211.6
2014-Oct-22 22:33N 54°57' E 013°43'4911.2
2014-Oct-22 18:13N 54°38' E 012°25'811.0
2014-Oct-22 17:28N 54°31' E 012°16'910.2
2014-Oct-22 16:33N 54°24' E 012°05'1111.2
2014-Oct-22 15:33N 54°25' E 011°46'138 4.3
2014-Oct-21 07:16N 56°42' E 011°49'911.9
2014-Oct-21 06:33N 56°51' E 011°49'1312.8
2014-Oct-21 05:32N 57°03' E 011°40'1212.6
2014-Oct-21 04:33N 57°15' E 011°32'1312.6
2014-Oct-21 03:33N 57°27' E 011°24'1312.6
2014-Oct-21 02:33N 57°38' E 011°17'1413.5
2014-Oct-21 01:33N 57°51' E 011°08'1312.7
2014-Oct-21 00:33N 58°03' E 011°01'1212.5
2014-Oct-20 23:33N 58°15' E 010°53'1111.4
2014-Oct-20 22:33N 58°26' E 010°46'1111.4
2014-Oct-20 21:33N 58°37' E 010°39'1211.6
2014-Oct-20 20:33N 58°48' E 010°33'1211.8
2014-Oct-20 19:33N 58°60' E 010°35'1110.5
2014-Oct-20 18:33N 59°10' E 010°37'10 9.8
2014-Oct-20 17:33N 59°20' E 010°31'0 0.0
2014-Oct-20 16:33N 59°20' E 010°31'0 0.0
2014-Oct-20 15:33N 59°20' E 010°31'0 0.0
2014-Oct-20 14:30N 59°20' E 010°31'0 0.0
2014-Oct-20 13:33N 59°20' E 010°31'0 0.0
2014-Oct-20 04:33N 59°20' E 010°31'0 0.0
2014-Oct-20 03:30N 59°20' E 010°31'0 0.0
2014-Oct-20 02:33N 59°20' E 010°31'0 0.0
2014-Oct-20 01:30N 59°20' E 010°31'0 0.0
2014-Oct-20 00:33N 59°20' E 010°31'0 0.0
2014-Oct-19 23:22N 59°20' E 010°31'1 0.8
2014-Oct-19 22:32N 59°20' E 010°31'0 0.0
2014-Oct-19 21:32N 59°20' E 010°31'0 0.0
2014-Oct-19 20:32N 59°20' E 010°31'0 0.0
2014-Oct-19 19:32N 59°20' E 010°31'0 0.0
2014-Oct-19 18:32N 59°20' E 010°31'0 0.0
2014-Oct-19 17:29N 59°20' E 010°31'0 0.0
2014-Oct-19 16:32N 59°20' E 010°31'0 0.0
2014-Oct-19 15:29N 59°20' E 010°31'0 0.0
2014-Oct-19 14:32N 59°20' E 010°31'0 0.0
2014-Oct-19 13:32N 59°20' E 010°31'0 0.0
2014-Oct-19 12:32N 59°20' E 010°31'0 0.1
2014-Oct-19 11:32N 59°20' E 010°31'0 0.0
2014-Oct-19 10:32N 59°20' E 010°31'0 0.0
2014-Oct-19 09:32N 59°20' E 010°31'0 0.0
2014-Oct-19 08:32N 59°20' E 010°31'0 0.0
2014-Oct-19 07:32N 59°20' E 010°31'0 0.0
2014-Oct-19 06:32N 59°20' E 010°31'4 4.6
2014-Oct-19 05:33N 59°16' E 010°35'1211.6
2014-Oct-19 04:33N 59°05' E 010°34'1110.6
2014-Oct-19 03:33N 58°54' E 010°30'1111.3
2014-Oct-19 02:33N 58°43' E 010°24'1111.3
2014-Oct-19 01:33N 58°33' E 010°18'1610.8
2014-Oct-19 00:05N 58°20' E 009°60'4711.9
2014-Oct-18 20:05N 57°44' E 009°01'611.8
2014-Oct-18 19:32N 57°39' E 008°53'1212.4
2014-Oct-18 18:33N 57°29' E 008°39'22912.7
2014-Oct-18 00:33N 54°15' E 005°05'1312.6
2014-Oct-17 23:32N 54°05' E 004°50'1212.5
2014-Oct-17 22:33N 53°56' E 004°36'11410.1
2014-Oct-17 11:19N 52°09' E 003°32'911.5
2014-Oct-17 10:33N 52°05' E 003°44'9 9.4
2014-Oct-17 09:33N 52°02' E 003°59'5 5.0
2014-Oct-17 08:33N 51°59' E 004°05'4 3.3
2014-Oct-17 07:27N 51°56' E 004°10'0 0.0
2014-Oct-17 06:33N 51°56' E 004°10'0 0.0
2014-Oct-17 05:33N 51°56' E 004°10'0 0.0
2014-Oct-17 04:33N 51°56' E 004°10'0 0.0
2014-Oct-17 03:27N 51°56' E 004°10'0 0.0
2014-Oct-17 02:27N 51°56' E 004°10'0 0.0
2014-Oct-17 01:24N 51°56' E 004°10'0 0.0
2014-Oct-17 00:27N 51°56' E 004°10'0 0.0
2014-Oct-16 23:33N 51°56' E 004°10'0 0.0
2014-Oct-16 22:33N 51°56' E 004°10'0 0.0
2014-Oct-16 21:30N 51°56' E 004°10'0 0.0
2014-Oct-16 20:33N 51°56' E 004°10'0 0.0
2014-Oct-16 19:33N 51°56' E 004°10'0 0.0
2014-Oct-16 18:33N 51°56' E 004°10'0 0.0
2014-Oct-16 17:18N 51°56' E 004°10'0 0.0
2014-Oct-16 16:33N 51°56' E 004°10'0 0.0
2014-Oct-16 15:33N 51°56' E 004°10'0 0.0
2014-Oct-16 14:33N 51°56' E 004°10'0 0.0
2014-Oct-16 13:33N 51°56' E 004°10'0 0.0
2014-Oct-16 12:12N 51°56' E 004°10'0 0.0
2014-Oct-16 11:33N 51°56' E 004°10'0 0.0
2014-Oct-16 10:24N 51°56' E 004°10'0 0.0
2014-Oct-16 09:33N 51°56' E 004°10'0 0.0
2014-Oct-16 08:33N 51°56' E 004°10'0 0.0
2014-Oct-16 07:27N 51°56' E 004°10'0 0.0
2014-Oct-16 06:27N 51°56' E 004°10'0 0.0
2014-Oct-16 05:33N 51°56' E 004°10'0 0.0
2014-Oct-16 04:30N 51°56' E 004°10'0 0.0
2014-Oct-16 03:33N 51°56' E 004°10'0 0.0
2014-Oct-16 02:33N 51°56' E 004°10'0 0.0
2014-Oct-16 01:33N 51°56' E 004°10'0 0.0
2014-Oct-16 00:33N 51°56' E 004°10'0 0.0
2014-Oct-15 23:33N 51°56' E 004°10'  

Dump ship's entire track history